首页
METAR-TAF:

METAR-TAF

机场 :

Wunstorf, 德国

纬度: 52-27N, 经度: 009-26E, 海拔: 57米

当前天气观测

该预报发布于20分钟前的06:20 UTC
风速16节,风向西转西南
温度 6°C
湿度 93%
气压 1010 hPa
能見度: 8000
多云层高于600英尺
多云层高于1300英尺
小雨, 毛毛雨

METAR: ETNW 190620Z 24016KT 8000 -RADZ BKN006 BKN013 06/05 Q1010 YLO GRN TEMPO YLO

时间: 07:40 (06:40 UTC)

预报

该预报发布于1小时和3分钟前的05:37 UTC
预报有效从19日的 06点(UTC)到 20日的 06点(UTC)
风速12节,风向西转西南,有时为22节阵风
能见度10公里或以上
多云层高于1000英尺
短暂存在
从 19日的 06点(UTC)到 19日的 11点(UTC)
风速15节,风向西南,有时为28节阵风
能見度: 3000
多云层高于500英尺
雨, 毛毛雨
成为
从 19日的 11点(UTC)到 19日的 13点(UTC)
风速12节,风向西南
能见度10公里或以上
散云层高于1200英尺
多云层高于2000英尺
短暂存在
从 19日的 13点(UTC)到 19日的 20点(UTC)
风速10节,风向南转西南
能見度: 6000
多云层高于1000英尺
小雨
成为
从 19日的 20点(UTC)到 19日的 22点(UTC)
风速5节,风向南转西南
能見度: 3000
多云层高于500英尺
轻雾
短暂存在
从 20日的 00点(UTC)到 20日的 06点(UTC)
风速3节,风向多变
能見度: 0500
层高于100英尺

TAF: ETNW 190537Z 1906/2006 24012G22KT 9999 NSW BKN010 TEMPO 1906/1911 23015G28KT 3000 RADZ BKN005 BECMG 1911/1913 22012KT 9999 NSW SCT012 BKN020 TEMPO 1913/1920 21010KT 6000 -RA BKN010 BECMG 1920/1922 21005KT 3000 BR BKN005 TEMPO 2000/2006 VRB03KT 0500 FG VV001 BY ETGL

超过4000个机场的气象观测和天气预报(METAR&TAF报告)。

可查询的气象台以黄色和红色小点在地图上表示。

将鼠标移到小点上方,可查看气象台名称。

然后点击查看天气观测和预报。

如需切换地图:点击带黑十字的绿色按钮放大地图;点击带横线的绿色按钮缩小地图;或者点击绿色箭头查看邻近地区的地图。


METAR-TAF: